sensor_id;sensor_type;location;lat;lon;timestamp;temperature;humidity
49729;DHT22;35617;50.714;7.114;2022-09-09T00:02:23;18.80;98.00
49729;DHT22;35617;50.714;7.114;2022-09-09T00:05:47;18.80;98.30
49729;DHT22;35617;50.714;7.114;2022-09-09T00:08:04;18.70;98.50
49729;DHT22;35617;50.714;7.114;2022-09-09T00:10:33;18.70;98.70
49729;DHT22;35617;50.714;7.114;2022-09-09T00:16:08;18.60;99.00
49729;DHT22;35617;50.714;7.114;2022-09-09T00:19:01;18.60;99.40
49729;DHT22;35617;50.714;7.114;2022-09-09T00:21:36;18.60;99.30
49729;DHT22;35617;50.714;7.114;2022-09-09T00:24:27;18.50;99.40
49729;DHT22;35617;50.714;7.114;2022-09-09T00:27:00;18.50;99.50
49729;DHT22;35617;50.714;7.114;2022-09-09T00:32:09;18.40;99.60
49729;DHT22;35617;50.714;7.114;2022-09-09T00:34:37;18.40;99.60
49729;DHT22;35617;50.714;7.114;2022-09-09T00:37:04;18.30;99.60
49729;DHT22;35617;50.714;7.114;2022-09-09T00:39:42;18.30;99.70
49729;DHT22;35617;50.714;7.114;2022-09-09T00:42:14;18.30;99.70
49729;DHT22;35617;50.714;7.114;2022-09-09T00:52:47;18.10;99.90
49729;DHT22;35617;50.714;7.114;2022-09-09T00:57:52;18.00;99.90
49729;DHT22;35617;50.714;7.114;2022-09-09T01:00:25;18.00;99.90
49729;DHT22;35617;50.714;7.114;2022-09-09T01:11:01;18.10;99.90
49729;DHT22;35617;50.714;7.114;2022-09-09T01:13:35;18.10;99.90
49729;DHT22;35617;50.714;7.114;2022-09-09T01:16:03;18.10;99.90
49729;DHT22;35617;50.714;7.114;2022-09-09T01:18:33;18.20;99.90
49729;DHT22;35617;50.714;7.114;2022-09-09T01:23:50;18.20;99.90
49729;DHT22;35617;50.714;7.114;2022-09-09T01:26:48;18.20;99.90
49729;DHT22;35617;50.714;7.114;2022-09-09T01:29:17;18.20;99.90
49729;DHT22;35617;50.714;7.114;2022-09-09T01:31:58;18.20;99.90
49729;DHT22;35617;50.714;7.114;2022-09-09T01:34:28;18.20;99.90
49729;DHT22;35617;50.714;7.114;2022-09-09T01:39:30;18.10;99.90
49729;DHT22;35617;50.714;7.114;2022-09-09T01:41:56;18.10;99.90
49729;DHT22;35617;50.714;7.114;2022-09-09T01:44:22;18.10;99.90
49729;DHT22;35617;50.714;7.114;2022-09-09T01:46:49;18.10;99.90
49729;DHT22;35617;50.714;7.114;2022-09-09T01:49:17;18.20;99.90
49729;DHT22;35617;50.714;7.114;2022-09-09T01:51:43;18.20;99.90
49729;DHT22;35617;50.714;7.114;2022-09-09T01:54:10;18.20;99.90
49729;DHT22;35617;50.714;7.114;2022-09-09T02:04:54;18.20;99.80
49729;DHT22;35617;50.714;7.114;2022-09-09T02:10:05;18.20;99.80
49729;DHT22;35617;50.714;7.114;2022-09-09T02:12:34;18.20;99.80
49729;DHT22;35617;50.714;7.114;2022-09-09T02:15:10;18.20;99.80
49729;DHT22;35617;50.714;7.114;2022-09-09T02:17:38;18.20;99.90
49729;DHT22;35617;50.714;7.114;2022-09-09T02:20:09;18.20;99.90
49729;DHT22;35617;50.714;7.114;2022-09-09T02:22:37;18.20;99.90
49729;DHT22;35617;50.714;7.114;2022-09-09T02:25:07;18.20;99.80
49729;DHT22;35617;50.714;7.114;2022-09-09T02:27:33;18.20;99.80
49729;DHT22;35617;50.714;7.114;2022-09-09T02:30:00;18.20;99.70
49729;DHT22;35617;50.714;7.114;2022-09-09T02:32:28;18.20;99.70
49729;DHT22;35617;50.714;7.114;2022-09-09T02:35:23;18.30;99.70
49729;DHT22;35617;50.714;7.114;2022-09-09T02:37:50;18.30;99.60
49729;DHT22;35617;50.714;7.114;2022-09-09T02:40:17;18.30;99.60
49729;DHT22;35617;50.714;7.114;2022-09-09T02:42:44;18.30;99.60
49729;DHT22;35617;50.714;7.114;2022-09-09T02:45:18;18.30;99.60
49729;DHT22;35617;50.714;7.114;2022-09-09T02:50:29;18.30;99.50
49729;DHT22;35617;50.714;7.114;2022-09-09T02:55:48;18.40;99.40
49729;DHT22;35617;50.714;7.114;2022-09-09T02:58:17;18.40;99.40
49729;DHT22;35617;50.714;7.114;2022-09-09T03:00:46;18.50;99.40
49729;DHT22;35617;50.714;7.114;2022-09-09T03:03:12;18.50;99.30
49729;DHT22;35617;50.714;7.114;2022-09-09T03:05:38;18.50;99.30
49729;DHT22;35617;50.714;7.114;2022-09-09T03:08:04;18.50;99.30
49729;DHT22;35617;50.714;7.114;2022-09-09T03:10:31;18.50;99.30
49729;DHT22;35617;50.714;7.114;2022-09-09T03:12:57;18.50;99.20
49729;DHT22;35617;50.714;7.114;2022-09-09T03:15:23;18.50;99.30
49729;DHT22;35617;50.714;7.114;2022-09-09T03:17:48;18.50;99.20
49729;DHT22;35617;50.714;7.114;2022-09-09T03:20:14;18.50;99.30
49729;DHT22;35617;50.714;7.114;2022-09-09T03:22:39;18.50;99.30
49729;DHT22;35617;50.714;7.114;2022-09-09T03:25:05;18.50;99.30
49729;DHT22;35617;50.714;7.114;2022-09-09T03:27:32;18.50;99.40
49729;DHT22;35617;50.714;7.114;2022-09-09T03:29:58;18.50;99.30
49729;DHT22;35617;50.714;7.114;2022-09-09T03:32:24;18.50;99.30
49729;DHT22;35617;50.714;7.114;2022-09-09T03:34:52;18.50;99.40
49729;DHT22;35617;50.714;7.114;2022-09-09T03:37:18;18.50;99.30
49729;DHT22;35617;50.714;7.114;2022-09-09T03:39:44;18.50;99.30
49729;DHT22;35617;50.714;7.114;2022-09-09T03:42:12;18.50;99.40
49729;DHT22;35617;50.714;7.114;2022-09-09T03:44:39;18.50;99.40
49729;DHT22;35617;50.714;7.114;2022-09-09T03:47:05;18.50;99.40
49729;DHT22;35617;50.714;7.114;2022-09-09T03:49:31;18.50;99.30
49729;DHT22;35617;50.714;7.114;2022-09-09T03:51:57;18.50;99.40
49729;DHT22;35617;50.714;7.114;2022-09-09T03:54:24;18.50;99.50
49729;DHT22;35617;50.714;7.114;2022-09-09T03:56:50;18.50;99.50
49729;DHT22;35617;50.714;7.114;2022-09-09T03:59:16;18.40;99.50
49729;DHT22;35617;50.714;7.114;2022-09-09T04:01:44;18.40;99.50
49729;DHT22;35617;50.714;7.114;2022-09-09T04:04:10;18.50;99.60
49729;DHT22;35617;50.714;7.114;2022-09-09T04:06:37;18.40;99.60
49729;DHT22;35617;50.714;7.114;2022-09-09T04:09:02;18.40;99.70
49729;DHT22;35617;50.714;7.114;2022-09-09T04:11:28;18.40;99.70
49729;DHT22;35617;50.714;7.114;2022-09-09T04:13:54;18.40;99.70
49729;DHT22;35617;50.714;7.114;2022-09-09T04:16:20;18.50;99.60
49729;DHT22;35617;50.714;7.114;2022-09-09T04:18:46;18.50;99.60
49729;DHT22;35617;50.714;7.114;2022-09-09T04:21:12;18.50;99.60
49729;DHT22;35617;50.714;7.114;2022-09-09T04:23:38;18.50;99.60
49729;DHT22;35617;50.714;7.114;2022-09-09T04:26:04;18.50;99.60
49729;DHT22;35617;50.714;7.114;2022-09-09T04:28:33;18.50;99.50
49729;DHT22;35617;50.714;7.114;2022-09-09T04:31:21;18.50;99.50
49729;DHT22;35617;50.714;7.114;2022-09-09T04:33:52;18.50;99.50
49729;DHT22;35617;50.714;7.114;2022-09-09T04:36:18;18.50;99.50
49729;DHT22;35617;50.714;7.114;2022-09-09T04:38:45;18.50;99.50
49729;DHT22;35617;50.714;7.114;2022-09-09T04:41:11;18.60;99.50
49729;DHT22;35617;50.714;7.114;2022-09-09T04:43:37;18.50;99.50
49729;DHT22;35617;50.714;7.114;2022-09-09T04:46:03;18.60;99.50
49729;DHT22;35617;50.714;7.114;2022-09-09T04:48:29;18.50;99.50
49729;DHT22;35617;50.714;7.114;2022-09-09T04:51:05;18.50;99.50
49729;DHT22;35617;50.714;7.114;2022-09-09T04:53:31;18.50;99.50
49729;DHT22;35617;50.714;7.114;2022-09-09T04:56:07;18.50;99.50
49729;DHT22;35617;50.714;7.114;2022-09-09T04:58:33;18.50;99.50
49729;DHT22;35617;50.714;7.114;2022-09-09T05:01:10;18.50;99.40
49729;DHT22;35617;50.714;7.114;2022-09-09T05:03:36;18.50;99.40
49729;DHT22;35617;50.714;7.114;2022-09-09T05:06:07;18.50;99.30
49729;DHT22;35617;50.714;7.114;2022-09-09T05:08:34;18.50;99.30
49729;DHT22;35617;50.714;7.114;2022-09-09T05:10:59;18.50;99.30
49729;DHT22;35617;50.714;7.114;2022-09-09T05:13:26;18.50;99.30
49729;DHT22;35617;50.714;7.114;2022-09-09T05:15:55;18.50;99.20
49729;DHT22;35617;50.714;7.114;2022-09-09T05:18:21;18.50;99.20
49729;DHT22;35617;50.714;7.114;2022-09-09T05:20:48;18.50;99.20
49729;DHT22;35617;50.714;7.114;2022-09-09T05:23:13;18.60;99.20
49729;DHT22;35617;50.714;7.114;2022-09-09T05:25:39;18.60;99.10
49729;DHT22;35617;50.714;7.114;2022-09-09T05:28:07;18.60;99.00
49729;DHT22;35617;50.714;7.114;2022-09-09T05:30:33;18.60;99.00
49729;DHT22;35617;50.714;7.114;2022-09-09T05:32:59;18.70;99.00
49729;DHT22;35617;50.714;7.114;2022-09-09T05:35:25;18.70;98.90
49729;DHT22;35617;50.714;7.114;2022-09-09T05:37:50;18.70;98.80
49729;DHT22;35617;50.714;7.114;2022-09-09T05:40:16;18.70;98.70
49729;DHT22;35617;50.714;7.114;2022-09-09T05:42:42;18.70;98.70
49729;DHT22;35617;50.714;7.114;2022-09-09T05:45:08;18.70;99.00
49729;DHT22;35617;50.714;7.114;2022-09-09T05:47:34;18.70;98.70
49729;DHT22;35617;50.714;7.114;2022-09-09T05:50:01;18.70;98.70
49729;DHT22;35617;50.714;7.114;2022-09-09T05:52:26;18.70;98.60
49729;DHT22;35617;50.714;7.114;2022-09-09T05:54:52;18.80;98.50
49729;DHT22;35617;50.714;7.114;2022-09-09T05:57:20;18.80;98.50
49729;DHT22;35617;50.714;7.114;2022-09-09T05:59:46;18.80;98.40
49729;DHT22;35617;50.714;7.114;2022-09-09T06:02:11;18.80;98.30
49729;DHT22;35617;50.714;7.114;2022-09-09T06:04:38;18.80;98.30
49729;DHT22;35617;50.714;7.114;2022-09-09T06:07:04;18.90;98.30
49729;DHT22;35617;50.714;7.114;2022-09-09T06:09:30;19.00;98.20
49729;DHT22;35617;50.714;7.114;2022-09-09T06:11:56;19.00;98.00
49729;DHT22;35617;50.714;7.114;2022-09-09T06:14:22;19.10;97.90
49729;DHT22;35617;50.714;7.114;2022-09-09T06:16:48;19.10;97.80
49729;DHT22;35617;50.714;7.114;2022-09-09T06:19:14;19.20;97.70
49729;DHT22;35617;50.714;7.114;2022-09-09T06:21:40;19.30;97.60
49729;DHT22;35617;50.714;7.114;2022-09-09T06:24:06;19.30;97.40
49729;DHT22;35617;50.714;7.114;2022-09-09T06:26:37;19.40;97.40
49729;DHT22;35617;50.714;7.114;2022-09-09T06:29:07;19.30;97.20
49729;DHT22;35617;50.714;7.114;2022-09-09T06:31:34;19.30;97.10
49729;DHT22;35617;50.714;7.114;2022-09-09T06:34:00;19.40;97.40
49729;DHT22;35617;50.714;7.114;2022-09-09T06:36:31;19.40;97.30
49729;DHT22;35617;50.714;7.114;2022-09-09T06:38:57;19.30;97.30
49729;DHT22;35617;50.714;7.114;2022-09-09T06:41:25;19.30;97.20
49729;DHT22;35617;50.714;7.114;2022-09-09T06:43:54;19.30;97.10
49729;DHT22;35617;50.714;7.114;2022-09-09T06:46:29;19.30;97.10
49729;DHT22;35617;50.714;7.114;2022-09-09T06:48:57;19.20;97.00
49729;DHT22;35617;50.714;7.114;2022-09-09T06:51:26;19.20;97.20
49729;DHT22;35617;50.714;7.114;2022-09-09T06:53:54;19.30;97.00
49729;DHT22;35617;50.714;7.114;2022-09-09T06:56:29;19.30;96.90
49729;DHT22;35617;50.714;7.114;2022-09-09T06:58:59;19.30;96.80
49729;DHT22;35617;50.714;7.114;2022-09-09T07:01:46;19.30;96.60
49729;DHT22;35617;50.714;7.114;2022-09-09T07:04:13;19.40;96.50
49729;DHT22;35617;50.714;7.114;2022-09-09T07:06:44;19.50;96.20
49729;DHT22;35617;50.714;7.114;2022-09-09T07:09:11;19.50;95.90
49729;DHT22;35617;50.714;7.114;2022-09-09T07:11:43;19.60;95.70
49729;DHT22;35617;50.714;7.114;2022-09-09T07:14:09;19.60;95.70
49729;DHT22;35617;50.714;7.114;2022-09-09T07:16:38;19.60;95.70
49729;DHT22;35617;50.714;7.114;2022-09-09T07:19:04;19.60;95.60
49729;DHT22;35617;50.714;7.114;2022-09-09T07:21:30;19.70;95.60
49729;DHT22;35617;50.714;7.114;2022-09-09T07:23:57;19.70;95.40
49729;DHT22;35617;50.714;7.114;2022-09-09T07:26:29;19.70;95.10
49729;DHT22;35617;50.714;7.114;2022-09-09T07:28:55;19.70;94.50
49729;DHT22;35617;50.714;7.114;2022-09-09T07:31:30;19.70;93.80
49729;DHT22;35617;50.714;7.114;2022-09-09T07:33:57;19.70;94.10
49729;DHT22;35617;50.714;7.114;2022-09-09T07:36:26;19.70;94.50
49729;DHT22;35617;50.714;7.114;2022-09-09T07:38:54;19.80;94.30
49729;DHT22;35617;50.714;7.114;2022-09-09T07:41:36;19.80;94.00
49729;DHT22;35617;50.714;7.114;2022-09-09T07:44:11;19.80;93.70
49729;DHT22;35617;50.714;7.114;2022-09-09T07:46:38;19.90;93.40
49729;DHT22;35617;50.714;7.114;2022-09-09T07:49:07;20.10;93.50
49729;DHT22;35617;50.714;7.114;2022-09-09T07:51:35;20.30;93.30
49729;DHT22;35617;50.714;7.114;2022-09-09T07:54:04;20.50;93.10
49729;DHT22;35617;50.714;7.114;2022-09-09T07:56:31;20.60;93.00
49729;DHT22;35617;50.714;7.114;2022-09-09T07:58:58;20.70;92.90
49729;DHT22;35617;50.714;7.114;2022-09-09T08:01:30;20.70;92.30
49729;DHT22;35617;50.714;7.114;2022-09-09T08:04:04;20.70;92.80
49729;DHT22;35617;50.714;7.114;2022-09-09T08:06:34;20.80;92.30
49729;DHT22;35617;50.714;7.114;2022-09-09T08:08:59;20.80;92.20
49729;DHT22;35617;50.714;7.114;2022-09-09T08:11:27;20.80;91.90
49729;DHT22;35617;50.714;7.114;2022-09-09T08:13:53;20.90;91.50
49729;DHT22;35617;50.714;7.114;2022-09-09T08:16:28;20.90;91.40
49729;DHT22;35617;50.714;7.114;2022-09-09T08:18:56;21.00;91.20
49729;DHT22;35617;50.714;7.114;2022-09-09T08:21:27;21.00;91.20
49729;DHT22;35617;50.714;7.114;2022-09-09T08:23:54;21.10;91.20
49729;DHT22;35617;50.714;7.114;2022-09-09T08:26:22;21.10;90.80
49729;DHT22;35617;50.714;7.114;2022-09-09T08:28:53;21.20;90.90
49729;DHT22;35617;50.714;7.114;2022-09-09T08:31:21;21.10;90.90
49729;DHT22;35617;50.714;7.114;2022-09-09T08:33:47;21.10;91.00
49729;DHT22;35617;50.714;7.114;2022-09-09T08:36:19;21.10;91.00
49729;DHT22;35617;50.714;7.114;2022-09-09T08:38:49;21.20;91.00
49729;DHT22;35617;50.714;7.114;2022-09-09T08:41:35;21.30;90.80
49729;DHT22;35617;50.714;7.114;2022-09-09T08:47:02;21.30;90.20
49729;DHT22;35617;50.714;7.114;2022-09-09T08:52:03;21.40;90.00
49729;DHT22;35617;50.714;7.114;2022-09-09T08:54:35;21.40;88.20
49729;DHT22;35617;50.714;7.114;2022-09-09T08:57:03;21.50;88.50
49729;DHT22;35617;50.714;7.114;2022-09-09T08:59:35;21.60;86.80
49729;DHT22;35617;50.714;7.114;2022-09-09T09:02:21;21.80;86.20
49729;DHT22;35617;50.714;7.114;2022-09-09T09:04:56;21.80;84.20
49729;DHT22;35617;50.714;7.114;2022-09-09T09:07:53;21.90;85.70
49729;DHT22;35617;50.714;7.114;2022-09-09T09:10:39;22.00;84.70
49729;DHT22;35617;50.714;7.114;2022-09-09T09:13:45;22.20;84.40
49729;DHT22;35617;50.714;7.114;2022-09-09T09:16:36;22.30;83.50
49729;DHT22;35617;50.714;7.114;2022-09-09T09:19:04;22.40;84.00
49729;DHT22;35617;50.714;7.114;2022-09-09T09:21:41;22.50;82.50
49729;DHT22;35617;50.714;7.114;2022-09-09T09:24:40;22.60;81.80
49729;DHT22;35617;50.714;7.114;2022-09-09T09:27:13;22.70;81.10
49729;DHT22;35617;50.714;7.114;2022-09-09T09:29:40;22.70;80.40
49729;DHT22;35617;50.714;7.114;2022-09-09T09:32:11;22.80;79.30
49729;DHT22;35617;50.714;7.114;2022-09-09T09:34:38;22.80;79.30
49729;DHT22;35617;50.714;7.114;2022-09-09T09:37:15;22.80;78.80
49729;DHT22;35617;50.714;7.114;2022-09-09T09:39:45;22.90;77.50
49729;DHT22;35617;50.714;7.114;2022-09-09T09:42:12;22.90;78.10
49729;DHT22;35617;50.714;7.114;2022-09-09T09:44:40;23.00;77.00
49729;DHT22;35617;50.714;7.114;2022-09-09T09:47:12;23.00;76.20
49729;DHT22;35617;50.714;7.114;2022-09-09T09:49:39;23.00;75.10
49729;DHT22;35617;50.714;7.114;2022-09-09T09:52:20;22.80;75.30
49729;DHT22;35617;50.714;7.114;2022-09-09T09:54:46;22.70;75.30
49729;DHT22;35617;50.714;7.114;2022-09-09T09:57:14;22.80;75.10
49729;DHT22;35617;50.714;7.114;2022-09-09T09:59:42;22.80;75.30
49729;DHT22;35617;50.714;7.114;2022-09-09T10:02:16;22.60;74.90
49729;DHT22;35617;50.714;7.114;2022-09-09T10:04:42;22.60;75.40
49729;DHT22;35617;50.714;7.114;2022-09-09T10:07:13;22.50;75.70
49729;DHT22;35617;50.714;7.114;2022-09-09T10:09:42;22.50;77.10
49729;DHT22;35617;50.714;7.114;2022-09-09T10:12:23;22.50;77.00
49729;DHT22;35617;50.714;7.114;2022-09-09T10:20:55;22.80;75.90
49729;DHT22;35617;50.714;7.114;2022-09-09T10:23:47;23.10;75.70
49729;DHT22;35617;50.714;7.114;2022-09-09T10:27:10;23.20;75.80
49729;DHT22;35617;50.714;7.114;2022-09-09T10:29:50;23.40;74.80
49729;DHT22;35617;50.714;7.114;2022-09-09T10:32:46;23.50;74.60
49729;DHT22;35617;50.714;7.114;2022-09-09T10:40:43;23.00;70.50
49729;DHT22;35617;50.714;7.114;2022-09-09T10:44:00;23.00;71.80
49729;DHT22;35617;50.714;7.114;2022-09-09T10:46:23;22.90;71.60
49729;DHT22;35617;50.714;7.114;2022-09-09T10:55:02;23.00;72.90
49729;DHT22;35617;50.714;7.114;2022-09-09T10:57:53;23.10;73.00
49729;DHT22;35617;50.714;7.114;2022-09-09T11:00:20;23.10;72.80
49729;DHT22;35617;50.714;7.114;2022-09-09T11:02:59;23.10;73.70
49729;DHT22;35617;50.714;7.114;2022-09-09T11:05:41;23.10;73.00
49729;DHT22;35617;50.714;7.114;2022-09-09T11:08:21;23.20;73.00
49729;DHT22;35617;50.714;7.114;2022-09-09T11:13:24;23.40;73.20
49729;DHT22;35617;50.714;7.114;2022-09-09T11:16:00;23.40;73.10
49729;DHT22;35617;50.714;7.114;2022-09-09T11:18:28;23.50;71.80
49729;DHT22;35617;50.714;7.114;2022-09-09T11:20:59;23.60;72.30
49729;DHT22;35617;50.714;7.114;2022-09-09T11:26:03;23.80;71.90
49729;DHT22;35617;50.714;7.114;2022-09-09T11:32:00;24.10;71.40
49729;DHT22;35617;50.714;7.114;2022-09-09T11:40:16;24.70;69.30
49729;DHT22;35617;50.714;7.114;2022-09-09T11:42:43;24.90;67.80
49729;DHT22;35617;50.714;7.114;2022-09-09T11:45:11;24.90;66.50
49729;DHT22;35617;50.714;7.114;2022-09-09T11:47:37;25.10;66.20
49729;DHT22;35617;50.714;7.114;2022-09-09T11:52:44;25.20;64.50
49729;DHT22;35617;50.714;7.114;2022-09-09T11:55:33;25.20;63.90
49729;DHT22;35617;50.714;7.114;2022-09-09T12:00:41;25.40;64.00
49729;DHT22;35617;50.714;7.114;2022-09-09T12:03:41;25.50;63.30
49729;DHT22;35617;50.714;7.114;2022-09-09T12:06:27;25.50;62.00
49729;DHT22;35617;50.714;7.114;2022-09-09T12:09:15;25.30;60.80
49729;DHT22;35617;50.714;7.114;2022-09-09T12:11:43;25.20;62.40
49729;DHT22;35617;50.714;7.114;2022-09-09T12:14:35;25.30;62.00
49729;DHT22;35617;50.714;7.114;2022-09-09T12:17:20;25.30;61.20
49729;DHT22;35617;50.714;7.114;2022-09-09T12:19:46;25.20;61.30
49729;DHT22;35617;50.714;7.114;2022-09-09T12:22:30;25.20;61.60
49729;DHT22;35617;50.714;7.114;2022-09-09T12:27:55;25.10;60.70
49729;DHT22;35617;50.714;7.114;2022-09-09T12:30:31;25.10;61.50
49729;DHT22;35617;50.714;7.114;2022-09-09T12:33:02;25.10;61.90
49729;DHT22;35617;50.714;7.114;2022-09-09T12:35:34;25.10;60.80
49729;DHT22;35617;50.714;7.114;2022-09-09T12:38:02;25.20;61.70
49729;DHT22;35617;50.714;7.114;2022-09-09T12:40:31;25.20;61.80
49729;DHT22;35617;50.714;7.114;2022-09-09T12:42:57;25.10;62.40
49729;DHT22;35617;50.714;7.114;2022-09-09T12:45:30;25.10;63.00
49729;DHT22;35617;50.714;7.114;2022-09-09T12:48:05;25.20;63.00
49729;DHT22;35617;50.714;7.114;2022-09-09T12:50:37;25.20;63.10
49729;DHT22;35617;50.714;7.114;2022-09-09T12:53:11;25.30;62.90
49729;DHT22;35617;50.714;7.114;2022-09-09T12:56:09;25.40;62.20
49729;DHT22;35617;50.714;7.114;2022-09-09T12:58:37;25.30;62.70
49729;DHT22;35617;50.714;7.114;2022-09-09T13:01:04;25.20;63.10
49729;DHT22;35617;50.714;7.114;2022-09-09T13:03:32;25.10;62.70
49729;DHT22;35617;50.714;7.114;2022-09-09T13:06:12;24.90;63.10
49729;DHT22;35617;50.714;7.114;2022-09-09T13:08:38;24.90;63.60
49729;DHT22;35617;50.714;7.114;2022-09-09T13:11:09;24.80;63.70
49729;DHT22;35617;50.714;7.114;2022-09-09T13:13:40;24.80;63.70
49729;DHT22;35617;50.714;7.114;2022-09-09T13:16:15;24.90;63.20
49729;DHT22;35617;50.714;7.114;2022-09-09T13:18:43;25.00;63.50
49729;DHT22;35617;50.714;7.114;2022-09-09T13:21:09;24.90;63.20
49729;DHT22;35617;50.714;7.114;2022-09-09T13:23:36;24.80;63.10
49729;DHT22;35617;50.714;7.114;2022-09-09T13:26:23;24.70;63.30
49729;DHT22;35617;50.714;7.114;2022-09-09T13:28:49;24.60;63.70
49729;DHT22;35617;50.714;7.114;2022-09-09T13:31:29;24.50;65.90
49729;DHT22;35617;50.714;7.114;2022-09-09T13:33:56;24.50;64.40
49729;DHT22;35617;50.714;7.114;2022-09-09T13:36:29;24.50;65.60
49729;DHT22;35617;50.714;7.114;2022-09-09T13:38:56;24.70;64.60
49729;DHT22;35617;50.714;7.114;2022-09-09T13:41:23;24.70;64.20
49729;DHT22;35617;50.714;7.114;2022-09-09T13:43:50;24.90;64.20
49729;DHT22;35617;50.714;7.114;2022-09-09T13:48:55;24.80;64.40
49729;DHT22;35617;50.714;7.114;2022-09-09T13:51:38;24.80;64.30
49729;DHT22;35617;50.714;7.114;2022-09-09T13:54:09;24.70;64.40
49729;DHT22;35617;50.714;7.114;2022-09-09T13:56:36;24.60;64.60
49729;DHT22;35617;50.714;7.114;2022-09-09T13:59:04;24.70;64.80
49729;DHT22;35617;50.714;7.114;2022-09-09T14:01:30;24.70;64.70
49729;DHT22;35617;50.714;7.114;2022-09-09T14:03:56;24.90;64.40
49729;DHT22;35617;50.714;7.114;2022-09-09T14:06:22;25.00;64.90
49729;DHT22;35617;50.714;7.114;2022-09-09T14:08:51;25.10;64.40
49729;DHT22;35617;50.714;7.114;2022-09-09T14:11:18;25.10;63.80
49729;DHT22;35617;50.714;7.114;2022-09-09T14:13:47;25.20;64.50
49729;DHT22;35617;50.714;7.114;2022-09-09T14:16:15;25.20;64.40
49729;DHT22;35617;50.714;7.114;2022-09-09T14:18:41;24.90;64.00
49729;DHT22;35617;50.714;7.114;2022-09-09T14:21:07;24.80;64.80
49729;DHT22;35617;50.714;7.114;2022-09-09T14:23:34;24.90;65.10
49729;DHT22;35617;50.714;7.114;2022-09-09T14:25:59;25.10;65.00
49729;DHT22;35617;50.714;7.114;2022-09-09T14:28:25;25.20;64.50
49729;DHT22;35617;50.714;7.114;2022-09-09T14:30:51;25.50;64.30
49729;DHT22;35617;50.714;7.114;2022-09-09T14:33:16;25.60;63.30
49729;DHT22;35617;50.714;7.114;2022-09-09T14:35:44;25.70;64.20
49729;DHT22;35617;50.714;7.114;2022-09-09T14:38:10;25.80;63.50
49729;DHT22;35617;50.714;7.114;2022-09-09T14:40:37;25.90;63.60
49729;DHT22;35617;50.714;7.114;2022-09-09T14:43:03;26.00;63.50
49729;DHT22;35617;50.714;7.114;2022-09-09T14:45:29;25.90;63.60
49729;DHT22;35617;50.714;7.114;2022-09-09T14:47:55;25.90;63.80
49729;DHT22;35617;50.714;7.114;2022-09-09T14:50:22;25.90;63.90
49729;DHT22;35617;50.714;7.114;2022-09-09T14:52:48;25.90;63.90
49729;DHT22;35617;50.714;7.114;2022-09-09T14:55:13;26.00;64.10
49729;DHT22;35617;50.714;7.114;2022-09-09T14:57:40;26.00;64.80
49729;DHT22;35617;50.714;7.114;2022-09-09T15:00:07;26.10;63.90
49729;DHT22;35617;50.714;7.114;2022-09-09T15:02:34;26.10;64.20
49729;DHT22;35617;50.714;7.114;2022-09-09T15:05:00;26.10;64.20
49729;DHT22;35617;50.714;7.114;2022-09-09T15:07:26;26.10;63.90
49729;DHT22;35617;50.714;7.114;2022-09-09T15:09:55;26.00;63.90
49729;DHT22;35617;50.714;7.114;2022-09-09T15:12:21;25.90;64.40
49729;DHT22;35617;50.714;7.114;2022-09-09T15:14:47;25.80;65.00
49729;DHT22;35617;50.714;7.114;2022-09-09T15:17:14;25.70;65.70
49729;DHT22;35617;50.714;7.114;2022-09-09T15:19:39;25.70;66.00
49729;DHT22;35617;50.714;7.114;2022-09-09T15:22:05;25.60;66.10
49729;DHT22;35617;50.714;7.114;2022-09-09T15:24:34;25.50;66.90
49729;DHT22;35617;50.714;7.114;2022-09-09T15:27:00;25.30;67.10
49729;DHT22;35617;50.714;7.114;2022-09-09T15:29:26;25.20;67.90
49729;DHT22;35617;50.714;7.114;2022-09-09T15:31:56;25.20;68.30
49729;DHT22;35617;50.714;7.114;2022-09-09T15:34:22;25.20;68.20
49729;DHT22;35617;50.714;7.114;2022-09-09T15:36:50;25.20;68.40
49729;DHT22;35617;50.714;7.114;2022-09-09T15:39:17;25.10;68.10
49729;DHT22;35617;50.714;7.114;2022-09-09T15:41:50;24.80;67.20
49729;DHT22;35617;50.714;7.114;2022-09-09T15:44:18;24.50;67.20
49729;DHT22;35617;50.714;7.114;2022-09-09T15:46:51;24.30;68.50
49729;DHT22;35617;50.714;7.114;2022-09-09T15:49:23;24.20;71.00
49729;DHT22;35617;50.714;7.114;2022-09-09T15:51:59;24.00;71.10
49729;DHT22;35617;50.714;7.114;2022-09-09T15:54:31;23.90;71.10
49729;DHT22;35617;50.714;7.114;2022-09-09T15:56:59;23.80;72.30
49729;DHT22;35617;50.714;7.114;2022-09-09T15:59:29;23.90;71.70
49729;DHT22;35617;50.714;7.114;2022-09-09T16:01:56;24.00;72.10
49729;DHT22;35617;50.714;7.114;2022-09-09T16:04:23;24.10;71.90
49729;DHT22;35617;50.714;7.114;2022-09-09T16:06:55;24.10;71.40
49729;DHT22;35617;50.714;7.114;2022-09-09T16:09:30;24.10;72.50
49729;DHT22;35617;50.714;7.114;2022-09-09T16:12:03;24.20;72.50
49729;DHT22;35617;50.714;7.114;2022-09-09T16:14:32;24.20;72.60
49729;DHT22;35617;50.714;7.114;2022-09-09T16:17:06;24.20;72.00
49729;DHT22;35617;50.714;7.114;2022-09-09T16:19:35;24.20;72.40
49729;DHT22;35617;50.714;7.114;2022-09-09T16:22:04;24.10;72.60
49729;DHT22;35617;50.714;7.114;2022-09-09T16:24:31;24.10;72.40
49729;DHT22;35617;50.714;7.114;2022-09-09T16:26:59;23.90;71.10
49729;DHT22;35617;50.714;7.114;2022-09-09T16:29:25;23.70;72.00
49729;DHT22;35617;50.714;7.114;2022-09-09T16:31:54;23.60;72.50
49729;DHT22;35617;50.714;7.114;2022-09-09T16:34:26;23.50;72.60
49729;DHT22;35617;50.714;7.114;2022-09-09T16:36:51;23.50;73.10
49729;DHT22;35617;50.714;7.114;2022-09-09T16:39:24;23.40;73.60
49729;DHT22;35617;50.714;7.114;2022-09-09T16:41:52;23.30;74.10
49729;DHT22;35617;50.714;7.114;2022-09-09T16:44:18;23.20;74.60
49729;DHT22;35617;50.714;7.114;2022-09-09T16:46:45;23.20;75.20
49729;DHT22;35617;50.714;7.114;2022-09-09T16:49:13;23.10;75.70
49729;DHT22;35617;50.714;7.114;2022-09-09T16:51:42;23.00;76.00
49729;DHT22;35617;50.714;7.114;2022-09-09T16:54:08;22.90;76.50
49729;DHT22;35617;50.714;7.114;2022-09-09T16:56:36;22.80;77.10
49729;DHT22;35617;50.714;7.114;2022-09-09T16:59:10;22.80;77.20
49729;DHT22;35617;50.714;7.114;2022-09-09T17:01:37;22.70;77.80
49729;DHT22;35617;50.714;7.114;2022-09-09T17:04:05;22.60;77.50
49729;DHT22;35617;50.714;7.114;2022-09-09T17:06:35;22.60;78.20
49729;DHT22;35617;50.714;7.114;2022-09-09T17:09:04;22.50;78.50
49729;DHT22;35617;50.714;7.114;2022-09-09T17:11:30;22.40;79.10
49729;DHT22;35617;50.714;7.114;2022-09-09T17:13:57;22.40;79.50
49729;DHT22;35617;50.714;7.114;2022-09-09T17:16:31;22.40;79.90
49729;DHT22;35617;50.714;7.114;2022-09-09T17:19:00;22.40;80.20
49729;DHT22;35617;50.714;7.114;2022-09-09T17:21:28;22.30;80.80
49729;DHT22;35617;50.714;7.114;2022-09-09T17:23:55;22.20;81.20
49729;DHT22;35617;50.714;7.114;2022-09-09T17:26:23;22.00;82.00